createdAt,value
2019-05-16T00:00:09.712Z,0.00
2019-05-16T00:01:09.593Z,0.00
2019-05-16T00:02:09.592Z,0.00
2019-05-16T00:03:09.486Z,0.00
2019-05-16T00:04:09.473Z,0.00
2019-05-16T00:05:09.364Z,0.00
2019-05-16T00:06:09.355Z,0.00
2019-05-16T00:07:09.239Z,0.00
2019-05-16T00:08:12.338Z,0.00
2019-05-16T00:09:09.124Z,0.00
2019-05-16T00:10:09.119Z,0.00
2019-05-16T00:11:09.000Z,0.00
2019-05-16T00:12:08.998Z,0.00
2019-05-16T00:13:08.882Z,0.00
2019-05-16T00:14:08.878Z,0.00
2019-05-16T00:15:09.323Z,0.00
2019-05-16T00:16:08.762Z,0.00
2019-05-16T00:17:08.765Z,0.00
2019-05-16T00:18:08.796Z,0.00
2019-05-16T00:19:09.065Z,0.00
2019-05-16T00:20:09.245Z,0.00
2019-05-16T00:21:08.802Z,0.00
2019-05-16T00:22:08.822Z,0.00
2019-05-16T00:23:08.403Z,0.00
2019-05-16T00:24:08.441Z,0.00
2019-05-16T00:25:08.669Z,0.00
2019-05-16T00:26:08.168Z,0.00
2019-05-16T00:27:08.475Z,0.00
2019-05-16T00:28:08.956Z,0.00
2019-05-16T00:29:08.178Z,0.00
2019-05-16T00:30:08.973Z,0.00
2019-05-16T00:31:08.711Z,0.00
2019-05-16T00:32:08.579Z,0.00
2019-05-16T00:33:08.288Z,0.00
2019-05-16T00:34:09.643Z,0.00
2019-05-16T00:35:09.155Z,0.00
2019-05-16T00:36:09.227Z,0.00
2019-05-16T00:37:08.690Z,0.00
2019-05-16T00:38:08.640Z,0.00
2019-05-16T00:39:08.362Z,0.00
2019-05-16T00:40:08.212Z,0.00
2019-05-16T00:41:08.479Z,0.00
2019-05-16T00:42:08.797Z,0.00
2019-05-16T00:43:08.085Z,0.00
2019-05-16T00:44:08.468Z,0.00
2019-05-16T00:45:09.176Z,0.00
2019-05-16T00:46:08.262Z,0.00
2019-05-16T00:47:08.651Z,0.00
2019-05-16T00:48:08.800Z,0.00
2019-05-16T00:49:08.296Z,0.00
2019-05-16T00:50:08.754Z,0.00
2019-05-16T00:51:07.821Z,0.00
2019-05-16T00:52:07.778Z,0.00
2019-05-16T00:53:08.968Z,0.00
2019-05-16T00:54:08.302Z,0.00
2019-05-16T00:55:08.374Z,0.00
2019-05-16T00:56:07.923Z,0.00
2019-05-16T00:57:08.498Z,0.00
2019-05-16T00:58:08.669Z,0.00
2019-05-16T00:59:07.900Z,0.00
2019-05-16T01:00:08.255Z,0.00
2019-05-16T01:01:08.350Z,0.00
2019-05-16T01:02:06.149Z,0.00
2019-05-16T01:03:08.143Z,0.00
2019-05-16T01:04:08.003Z,0.00
2019-05-16T01:05:08.282Z,0.00
2019-05-16T01:06:16.588Z,0.00
2019-05-16T01:07:07.674Z,0.00
2019-05-16T01:08:07.756Z,0.00
2019-05-16T01:09:05.787Z,0.00
2019-05-16T01:10:05.787Z,0.00
2019-05-16T01:11:07.783Z,0.00
2019-05-16T01:12:05.668Z,0.00
2019-05-16T01:13:07.844Z,0.00
2019-05-16T01:14:05.546Z,0.00
2019-05-16T01:15:07.625Z,0.00
2019-05-16T01:16:05.428Z,0.00
2019-05-16T01:17:05.313Z,0.00
2019-05-16T01:18:07.868Z,0.00
2019-05-16T01:19:05.194Z,0.00
2019-05-16T01:20:05.190Z,0.00
2019-05-16T01:21:05.191Z,0.00
2019-05-16T01:22:05.072Z,0.00
2019-05-16T01:23:05.073Z,0.00
2019-05-16T01:24:04.956Z,0.00
2019-05-16T01:25:04.954Z,0.00
2019-05-16T01:26:04.837Z,0.00
2019-05-16T01:27:04.834Z,0.00
2019-05-16T01:28:04.718Z,0.00
2019-05-16T01:29:04.715Z,0.00
2019-05-16T01:30:04.599Z,0.00
2019-05-16T01:31:04.596Z,0.00
2019-05-16T01:32:04.480Z,0.00
2019-05-16T01:33:04.477Z,0.00
2019-05-16T01:34:04.361Z,0.00
2019-05-16T01:35:04.359Z,0.00
2019-05-16T01:36:04.242Z,0.00
2019-05-16T01:37:04.239Z,0.00
2019-05-16T01:38:04.239Z,0.00
2019-05-16T01:39:04.121Z,0.00
2019-05-16T01:40:04.120Z,0.00
2019-05-16T01:41:04.004Z,0.00
2019-05-16T01:42:04.126Z,0.00
2019-05-16T01:43:03.887Z,0.00
2019-05-16T01:44:03.883Z,0.00
2019-05-16T01:45:03.765Z,0.00
2019-05-16T01:46:03.764Z,0.00
2019-05-16T01:47:03.647Z,0.00
2019-05-16T01:48:03.643Z,0.00
2019-05-16T01:49:03.529Z,0.00
2019-05-16T01:50:03.525Z,0.00
2019-05-16T01:51:03.410Z,0.00
2019-05-16T01:52:03.409Z,0.00
2019-05-16T01:53:03.289Z,0.00
2019-05-16T01:54:03.286Z,0.00
2019-05-16T01:55:03.288Z,0.00
2019-05-16T01:56:03.169Z,0.00
2019-05-16T01:57:03.290Z,0.00
2019-05-16T01:58:03.173Z,0.00
2019-05-16T01:59:03.050Z,0.00
2019-05-16T02:00:02.932Z,0.00
2019-05-16T02:01:12.218Z,0.00
2019-05-16T02:02:02.815Z,0.00
2019-05-16T02:03:02.812Z,0.00
2019-05-16T02:04:02.695Z,0.00
2019-05-16T02:05:02.693Z,0.00
2019-05-16T02:06:02.576Z,0.00
2019-05-16T02:07:02.574Z,0.00
2019-05-16T02:08:02.457Z,0.00
2019-05-16T02:09:02.455Z,0.00
2019-05-16T02:10:02.344Z,0.00
2019-05-16T02:11:02.335Z,0.00
2019-05-16T02:12:02.219Z,0.00
2019-05-16T02:13:02.225Z,0.00
2019-05-16T02:14:02.217Z,0.00
2019-05-16T02:15:02.107Z,0.00
2019-05-16T02:16:02.097Z,0.00
2019-05-16T02:17:01.980Z,0.00
2019-05-16T02:18:01.983Z,0.00
2019-05-16T02:19:01.862Z,0.00
2019-05-16T02:20:01.863Z,0.00
2019-05-16T02:21:01.743Z,0.00
2019-05-16T02:22:01.741Z,0.00
2019-05-16T02:23:01.627Z,0.00
2019-05-16T02:24:02.138Z,0.00
2019-05-16T02:25:01.505Z,0.00
2019-05-16T02:26:01.502Z,0.00
2019-05-16T02:27:01.387Z,0.00
2019-05-16T02:28:01.384Z,0.00
2019-05-16T02:29:01.278Z,0.00
2019-05-16T02:30:01.265Z,0.00
2019-05-16T02:31:01.564Z,0.00
2019-05-16T02:32:02.143Z,0.00
2019-05-16T02:33:01.312Z,0.00
2019-05-16T02:34:04.391Z,0.00
2019-05-16T02:35:01.430Z,0.00
2019-05-16T02:36:01.726Z,0.00
2019-05-16T02:37:18.323Z,0.00
2019-05-16T02:38:01.217Z,0.00
2019-05-16T02:39:01.964Z,0.00
2019-05-16T02:40:01.624Z,0.00
2019-05-16T02:41:03.076Z,0.00
2019-05-16T02:42:01.178Z,0.00
2019-05-16T02:43:01.529Z,0.00
2019-05-16T02:44:01.254Z,0.00
2019-05-16T02:45:02.351Z,0.00
2019-05-16T02:46:01.161Z,0.00
2019-05-16T02:47:01.580Z,0.00
2019-05-16T02:48:01.229Z,0.00
2019-05-16T02:49:00.785Z,0.00
2019-05-16T02:50:01.119Z,0.00
2019-05-16T02:51:01.853Z,0.00
2019-05-16T02:52:01.377Z,0.00
2019-05-16T02:53:01.491Z,0.00
2019-05-16T02:54:01.341Z,0.00
2019-05-16T02:55:00.911Z,0.00
2019-05-16T02:56:01.400Z,0.00
2019-05-16T02:57:01.373Z,0.00
2019-05-16T02:58:00.882Z,0.00
2019-05-16T02:59:01.674Z,0.00
2019-05-16T03:00:01.742Z,0.00
2019-05-16T03:01:01.945Z,0.00
2019-05-16T03:02:00.860Z,0.00
2019-05-16T03:03:01.127Z,0.00
2019-05-16T03:04:01.689Z,0.00
2019-05-16T03:05:00.949Z,0.00
2019-05-16T03:06:01.439Z,0.00
2019-05-16T03:07:00.650Z,0.00
2019-05-16T03:08:01.290Z,0.00
2019-05-16T03:09:01.736Z,0.00
2019-05-16T03:10:01.621Z,0.00
2019-05-16T03:11:01.070Z,0.00
2019-05-16T03:12:01.304Z,0.00
2019-05-16T03:13:00.911Z,0.00
2019-05-16T03:14:00.551Z,0.00
2019-05-16T03:15:01.881Z,0.00
2019-05-16T03:16:00.715Z,0.00
2019-05-16T03:17:01.030Z,0.00
2019-05-16T03:18:00.438Z,0.00
2019-05-16T03:19:01.186Z,0.00
2019-05-16T03:20:01.166Z,0.00
2019-05-16T03:21:00.596Z,0.00
2019-05-16T03:22:00.983Z,0.00
2019-05-16T03:22:58.291Z,0.00
2019-05-16T03:24:00.782Z,0.00
2019-05-16T03:25:01.077Z,0.00
2019-05-16T03:26:00.787Z,0.00
2019-05-16T03:27:01.310Z,0.00
2019-05-16T03:27:58.058Z,0.00
2019-05-16T03:29:00.733Z,0.00
2019-05-16T03:30:01.343Z,0.00
2019-05-16T03:31:04.218Z,0.00
2019-05-16T03:32:02.624Z,0.00
2019-05-16T03:33:03.791Z,0.00
2019-05-16T03:34:05.362Z,0.00
2019-05-16T03:35:04.106Z,0.00
2019-05-16T03:35:57.593Z,0.00
2019-05-16T03:37:03.338Z,0.00
2019-05-16T03:38:01.416Z,0.00
2019-05-16T03:38:57.342Z,0.00
2019-05-16T03:40:00.312Z,0.00
2019-05-16T03:40:57.222Z,0.00
2019-05-16T03:41:57.222Z,0.00
2019-05-16T03:42:57.103Z,0.00
2019-05-16T03:43:57.100Z,0.00
2019-05-16T03:44:57.702Z,0.00
2019-05-16T03:45:56.982Z,0.00
2019-05-16T03:46:56.984Z,0.00
2019-05-16T03:47:56.881Z,0.00
2019-05-16T03:48:56.863Z,0.00
2019-05-16T03:49:56.745Z,0.00
2019-05-16T03:50:56.744Z,0.00
2019-05-16T03:51:56.627Z,0.00
2019-05-16T03:52:56.627Z,0.00
2019-05-16T03:53:56.508Z,0.00
2019-05-16T03:54:56.507Z,0.00
2019-05-16T03:55:56.390Z,0.00
2019-05-16T03:57:00.271Z,0.00
2019-05-16T03:57:56.271Z,0.00
2019-05-16T03:58:56.273Z,0.00
2019-05-16T03:59:56.151Z,0.00
2019-05-16T04:00:56.162Z,0.00
2019-05-16T04:01:56.032Z,0.00
2019-05-16T04:02:56.030Z,0.00
2019-05-16T04:03:55.913Z,0.00
2019-05-16T04:04:55.911Z,0.00
2019-05-16T04:05:55.795Z,0.00
2019-05-16T04:06:55.824Z,0.00
2019-05-16T04:08:10.141Z,0.00
2019-05-16T04:08:55.676Z,0.00
2019-05-16T04:09:55.672Z,0.00
2019-05-16T04:10:55.595Z,0.00
2019-05-16T04:11:55.555Z,0.00
2019-05-16T04:12:55.448Z,0.00
2019-05-16T04:13:55.437Z,0.00
2019-05-16T04:14:55.328Z,0.00
2019-05-16T04:15:55.317Z,0.00
2019-05-16T04:16:55.209Z,0.00
2019-05-16T04:17:55.197Z,4.00
2019-05-16T04:18:55.081Z,0.00
2019-05-16T04:19:55.079Z,4.00
2019-05-16T04:20:54.963Z,0.00
2019-05-16T04:21:54.959Z,0.00
2019-05-16T04:22:54.845Z,0.00
2019-05-16T04:23:54.840Z,0.00
2019-05-16T04:24:54.724Z,0.00
2019-05-16T04:25:54.724Z,0.00
2019-05-16T04:26:54.720Z,0.00
2019-05-16T04:27:54.609Z,0.00
2019-05-16T04:28:54.603Z,0.00
2019-05-16T04:29:54.487Z,0.00
2019-05-16T04:30:54.486Z,0.00
2019-05-16T04:31:54.371Z,0.00
2019-05-16T04:32:54.367Z,0.00
2019-05-16T04:33:54.247Z,4.00
2019-05-16T04:34:54.247Z,4.00
2019-05-16T04:35:54.129Z,4.00
2019-05-16T04:36:54.126Z,4.00
2019-05-16T04:37:54.029Z,4.00
2019-05-16T04:38:54.009Z,4.00
2019-05-16T04:39:53.891Z,4.00
2019-05-16T04:40:53.888Z,4.00
2019-05-16T04:41:53.775Z,4.00
2019-05-16T04:42:53.768Z,4.00
2019-05-16T04:43:53.653Z,4.00
2019-05-16T04:44:53.650Z,4.00
2019-05-16T04:45:53.537Z,4.00
2019-05-16T04:46:53.531Z,0.00
2019-05-16T04:47:53.532Z,0.00
2019-05-16T04:48:53.414Z,0.00
2019-05-16T04:49:53.413Z,0.00
2019-05-16T04:50:53.298Z,0.00
2019-05-16T04:51:53.293Z,0.00
2019-05-16T04:52:53.176Z,0.00
2019-05-16T04:53:53.177Z,0.00
2019-05-16T04:54:53.067Z,0.00
2019-05-16T04:55:53.057Z,0.00
2019-05-16T04:56:52.938Z,0.00
2019-05-16T04:57:52.935Z,0.00
2019-05-16T04:58:52.826Z,0.00
2019-05-16T04:59:52.819Z,0.00
2019-05-16T05:00:52.772Z,0.00
2019-05-16T05:01:52.699Z,0.00
2019-05-16T05:02:52.583Z,0.00
2019-05-16T05:04:06.202Z,0.00
2019-05-16T05:04:52.468Z,0.00
2019-05-16T05:05:52.461Z,0.00
2019-05-16T05:06:55.643Z,0.00
2019-05-16T05:07:52.341Z,0.00
2019-05-16T05:08:58.615Z,0.00
2019-05-16T05:09:52.222Z,0.00
2019-05-16T05:10:52.331Z,0.00
2019-05-16T05:11:52.269Z,0.00
2019-05-16T05:12:52.104Z,0.00
2019-05-16T05:13:51.986Z,0.00
2019-05-16T05:14:52.011Z,4.00
2019-05-16T05:15:51.868Z,4.00
2019-05-16T05:16:51.865Z,4.00
2019-05-16T05:17:51.750Z,4.00
2019-05-16T05:18:51.800Z,4.00
2019-05-16T05:19:51.631Z,4.00
2019-05-16T05:20:52.582Z,4.00
2019-05-16T05:21:51.639Z,4.00
2019-05-16T05:22:51.509Z,4.00
2019-05-16T05:23:51.394Z,4.00
2019-05-16T05:24:51.395Z,4.00
2019-05-16T05:25:51.843Z,4.00
2019-05-16T05:26:51.271Z,4.00
2019-05-16T05:27:51.157Z,4.00
2019-05-16T05:28:51.151Z,4.00
2019-05-16T05:29:51.152Z,4.00
2019-05-16T05:30:51.039Z,4.00
2019-05-16T05:31:54.864Z,4.00
2019-05-16T05:32:50.915Z,4.00
2019-05-16T05:33:50.915Z,4.00
2019-05-16T05:34:50.812Z,4.00
2019-05-16T05:35:51.157Z,4.00
2019-05-16T05:36:51.332Z,4.00
2019-05-16T05:37:50.909Z,4.00
2019-05-16T05:39:06.214Z,4.00
2019-05-16T05:39:50.589Z,4.00
2019-05-16T05:40:51.316Z,4.00
2019-05-16T05:41:50.573Z,4.00
2019-05-16T05:42:50.620Z,4.00
2019-05-16T05:43:50.522Z,0.00
2019-05-16T05:44:50.817Z,0.00
2019-05-16T05:45:51.217Z,0.00
2019-05-16T05:46:51.244Z,4.00
2019-05-16T05:47:50.492Z,4.00
2019-05-16T05:48:50.523Z,4.00
2019-05-16T05:49:50.030Z,4.00
2019-05-16T05:50:50.819Z,4.00
2019-05-16T05:51:50.110Z,4.00
2019-05-16T05:52:51.130Z,4.00
2019-05-16T05:53:50.941Z,4.00
2019-05-16T05:54:50.262Z,4.00
2019-05-16T05:55:51.017Z,4.00
2019-05-16T05:56:50.128Z,4.00
2019-05-16T05:57:50.622Z,4.00
2019-05-16T05:58:51.205Z,4.00
2019-05-16T05:59:49.866Z,4.00
2019-05-16T06:00:51.997Z,4.00
2019-05-16T06:01:51.709Z,4.00
2019-05-16T06:02:50.834Z,4.00
2019-05-16T06:03:50.488Z,4.00
2019-05-16T06:04:50.218Z,4.00
2019-05-16T06:05:50.497Z,4.00
2019-05-16T06:06:50.327Z,4.00
2019-05-16T06:07:51.010Z,0.00
2019-05-16T06:08:50.180Z,4.00
2019-05-16T06:09:55.597Z,0.00
2019-05-16T06:10:50.462Z,4.00
2019-05-16T06:11:50.168Z,4.00
2019-05-16T06:12:50.095Z,4.00
2019-05-16T06:13:49.999Z,4.00
2019-05-16T06:14:50.470Z,4.00
2019-05-16T06:15:50.619Z,4.00
2019-05-16T06:16:50.666Z,4.00
2019-05-16T06:17:50.662Z,4.00
2019-05-16T06:18:50.229Z,4.00
2019-05-16T06:19:49.793Z,8.00
2019-05-16T06:20:50.846Z,4.00
2019-05-16T06:21:50.340Z,4.00
2019-05-16T06:22:48.061Z,4.00
2019-05-16T06:23:50.636Z,4.00
2019-05-16T06:24:50.284Z,4.00
2019-05-16T06:25:50.409Z,4.00
2019-05-16T06:26:47.821Z,4.00
2019-05-16T06:27:47.819Z,4.00
2019-05-16T06:28:50.245Z,8.00
2019-05-16T06:29:49.603Z,8.00
2019-05-16T06:30:47.586Z,8.00
2019-05-16T06:31:49.534Z,8.00
2019-05-16T06:32:47.582Z,8.00
2019-05-16T06:33:50.030Z,4.00
2019-05-16T06:34:47.463Z,4.00
2019-05-16T06:35:47.345Z,4.00
2019-05-16T06:36:47.344Z,8.00
2019-05-16T06:37:49.754Z,8.00
2019-05-16T06:38:49.625Z,8.00
2019-05-16T06:39:47.108Z,8.00
2019-05-16T06:40:49.845Z,8.00
2019-05-16T06:41:46.988Z,8.00
2019-05-16T06:42:46.992Z,8.00
2019-05-16T06:43:46.870Z,8.00
2019-05-16T06:44:46.868Z,4.00
2019-05-16T06:45:46.764Z,8.00
2019-05-16T06:46:59.673Z,8.00
2019-05-16T06:47:46.632Z,8.00
2019-05-16T06:48:46.630Z,8.00
2019-05-16T06:49:46.520Z,8.00
2019-05-16T06:50:46.511Z,8.00
2019-05-16T06:51:46.394Z,8.00
2019-05-16T06:52:46.393Z,8.00
2019-05-16T06:53:46.392Z,8.00
2019-05-16T06:54:46.272Z,8.00
2019-05-16T06:55:46.276Z,8.00
2019-05-16T06:56:46.155Z,8.00
2019-05-16T06:57:46.161Z,4.00
2019-05-16T06:58:50.948Z,8.00
2019-05-16T06:59:46.034Z,8.00
2019-05-16T07:00:45.922Z,8.00
2019-05-16T07:01:45.919Z,8.00
2019-05-16T07:02:45.801Z,8.00
2019-05-16T07:03:45.796Z,8.00
2019-05-16T07:04:45.680Z,8.00
2019-05-16T07:05:45.678Z,8.00
2019-05-16T07:06:57.936Z,8.00
2019-05-16T07:07:45.559Z,8.00
2019-05-16T07:08:45.445Z,8.00
2019-05-16T07:09:58.069Z,8.00
2019-05-16T07:10:45.323Z,8.00
2019-05-16T07:11:45.326Z,8.00
2019-05-16T07:12:45.359Z,8.00
2019-05-16T07:13:45.201Z,8.00
2019-05-16T07:14:45.202Z,12.00
2019-05-16T07:15:45.083Z,8.00
2019-05-16T07:16:45.084Z,8.00
2019-05-16T07:17:44.964Z,8.00
2019-05-16T07:18:44.966Z,8.00
2019-05-16T07:19:44.846Z,8.00
2019-05-16T07:20:44.845Z,12.00
2019-05-16T07:21:44.729Z,12.00
2019-05-16T07:22:44.725Z,8.00
2019-05-16T07:23:44.609Z,8.00
2019-05-16T07:24:44.614Z,8.00
2019-05-16T07:25:44.490Z,8.00
2019-05-16T07:26:44.487Z,8.00
2019-05-16T07:27:44.373Z,12.00
2019-05-16T07:28:44.369Z,8.00
2019-05-16T07:29:44.252Z,8.00
2019-05-16T07:30:44.249Z,8.00
2019-05-16T07:31:44.133Z,12.00
2019-05-16T07:32:44.132Z,8.00
2019-05-16T07:33:44.018Z,12.00
2019-05-16T07:34:44.023Z,12.00
2019-05-16T07:35:43.896Z,12.00
2019-05-16T07:36:43.892Z,12.00
2019-05-16T07:37:43.895Z,12.00
2019-05-16T07:38:43.775Z,12.00
2019-05-16T07:39:43.777Z,12.00
2019-05-16T07:40:43.659Z,12.00
2019-05-16T07:41:43.657Z,8.00
2019-05-16T07:42:43.539Z,8.00
2019-05-16T07:43:43.536Z,12.00
2019-05-16T07:44:43.423Z,8.00
2019-05-16T07:45:43.418Z,8.00
2019-05-16T07:46:44.636Z,8.00
2019-05-16T07:47:43.299Z,8.00
2019-05-16T07:48:43.184Z,8.00
2019-05-16T07:49:43.180Z,12.00
2019-05-16T07:50:43.064Z,12.00
2019-05-16T07:51:43.059Z,12.00
2019-05-16T07:52:42.943Z,8.00
2019-05-16T07:53:42.940Z,8.00
2019-05-16T07:54:42.824Z,8.00
2019-05-16T07:55:42.822Z,12.00
2019-05-16T07:56:42.713Z,12.00
2019-05-16T07:57:42.705Z,12.00
2019-05-16T07:58:42.704Z,8.00
2019-05-16T07:59:42.586Z,8.00
2019-05-16T08:00:52.611Z,8.00
2019-05-16T08:01:43.369Z,12.00
2019-05-16T08:02:42.472Z,12.00
2019-05-16T08:03:44.186Z,12.00
2019-05-16T08:04:42.348Z,12.00
2019-05-16T08:05:42.231Z,8.00
2019-05-16T08:06:42.228Z,12.00
2019-05-16T08:07:42.113Z,12.00
2019-05-16T08:08:42.109Z,12.00
2019-05-16T08:09:41.992Z,16.00
2019-05-16T08:10:46.569Z,12.00
2019-05-16T08:11:41.873Z,12.00
2019-05-16T08:12:41.896Z,12.00
2019-05-16T08:13:41.755Z,12.00
2019-05-16T08:14:41.752Z,12.00
2019-05-16T08:15:41.636Z,12.00
2019-05-16T08:16:41.632Z,16.00
2019-05-16T08:17:44.691Z,12.00
2019-05-16T08:19:41.520Z,12.00
2019-05-16T08:20:41.811Z,16.00
2019-05-16T08:21:41.394Z,16.00
2019-05-16T08:22:41.755Z,16.00
2019-05-16T08:23:41.437Z,12.00
2019-05-16T08:24:41.157Z,16.00
2019-05-16T08:25:41.365Z,16.00
2019-05-16T08:26:43.200Z,20.00
2019-05-16T08:27:41.546Z,16.00
2019-05-16T08:28:41.570Z,20.00
2019-05-16T08:29:40.922Z,24.00
2019-05-16T08:30:41.326Z,20.00
2019-05-16T08:31:43.037Z,24.00
2019-05-16T08:32:42.103Z,20.00
2019-05-16T08:33:41.635Z,24.00
2019-05-16T08:34:40.974Z,16.00
2019-05-16T08:35:41.406Z,16.00
2019-05-16T08:36:41.039Z,16.00
2019-05-16T08:38:42.956Z,16.00
2019-05-16T08:39:41.328Z,12.00
2019-05-16T08:41:02.564Z,12.00
2019-05-16T08:41:42.343Z,12.00
2019-05-16T08:42:41.614Z,16.00
2019-05-16T08:43:41.444Z,16.00
2019-05-16T08:44:41.792Z,16.00
2019-05-16T08:45:41.739Z,16.00
2019-05-16T08:46:42.411Z,16.00
2019-05-16T08:47:42.414Z,16.00
2019-05-16T08:48:42.337Z,20.00
2019-05-16T08:49:42.107Z,32.00
2019-05-16T08:50:42.053Z,36.00
2019-05-16T08:51:42.491Z,24.00
2019-05-16T08:52:43.581Z,20.00
2019-05-16T08:53:43.251Z,20.00
2019-05-16T08:54:43.813Z,28.00
2019-05-16T08:55:43.347Z,28.00
2019-05-16T08:56:44.244Z,32.00
2019-05-16T08:57:40.977Z,32.00
2019-05-16T08:58:41.119Z,24.00
2019-05-16T08:59:41.082Z,32.00
2019-05-16T09:00:42.006Z,28.00
2019-05-16T09:02:42.251Z,24.00
2019-05-16T09:03:41.594Z,24.00
2019-05-16T09:04:43.445Z,20.00
2019-05-16T09:05:42.632Z,16.00
2019-05-16T09:06:42.435Z,12.00
2019-05-16T09:07:38.779Z,12.00
2019-05-16T09:08:38.663Z,16.00
2019-05-16T09:09:44.275Z,12.00
2019-05-16T09:10:11.000Z,12.00
2019-05-16T09:10:25.131Z,20.00
2019-05-16T09:10:40.105Z,16.00
2019-05-16T09:10:59.771Z,12.00
2019-05-16T09:11:43.551Z,12.00
2019-05-16T09:12:38.456Z,12.00
2019-05-16T09:13:38.456Z,12.00
2019-05-16T09:14:39.193Z,12.00
2019-05-16T09:15:38.991Z,12.00
2019-05-16T09:16:38.184Z,12.00
2019-05-16T09:17:38.610Z,12.00
2019-05-16T09:18:41.266Z,16.00
2019-05-16T09:19:38.062Z,12.00
2019-05-16T09:20:42.631Z,12.00
2019-05-16T09:21:38.461Z,12.00
2019-05-16T09:22:38.077Z,16.00
2019-05-16T09:23:38.404Z,12.00
2019-05-16T09:24:38.030Z,12.00
2019-05-16T09:25:37.707Z,12.00
2019-05-16T09:26:38.407Z,16.00
2019-05-16T09:27:38.214Z,16.00
2019-05-16T09:28:39.131Z,16.00
2019-05-16T09:29:37.500Z,12.00
2019-05-16T09:30:37.468Z,12.00
2019-05-16T09:31:38.604Z,12.00
2019-05-16T09:32:37.354Z,12.00
2019-05-16T09:33:37.632Z,12.00
2019-05-16T09:34:38.034Z,12.00
2019-05-16T09:35:37.200Z,16.00
2019-05-16T09:36:37.360Z,16.00
2019-05-16T09:37:37.703Z,16.00
2019-05-16T09:38:38.333Z,12.00
2019-05-16T09:39:37.168Z,16.00
2019-05-16T09:40:38.892Z,12.00
2019-05-16T09:41:47.831Z,16.00
2019-05-16T09:42:37.353Z,16.00
2019-05-16T09:43:38.835Z,20.00
2019-05-16T09:44:37.122Z,20.00
2019-05-16T09:45:38.017Z,20.00
2019-05-16T09:46:37.588Z,20.00
2019-05-16T09:47:39.058Z,20.00
2019-05-16T09:48:38.046Z,20.00
2019-05-16T09:49:37.102Z,24.00
2019-05-16T09:50:37.911Z,20.00
2019-05-16T09:51:37.589Z,20.00
2019-05-16T09:52:36.477Z,20.00
2019-05-16T09:53:36.605Z,20.00
2019-05-16T09:54:37.928Z,20.00
2019-05-16T09:55:37.343Z,20.00
2019-05-16T09:56:36.983Z,20.00
2019-05-16T09:57:37.687Z,20.00
2019-05-16T09:58:37.328Z,24.00
2019-05-16T09:59:37.093Z,24.00
2019-05-16T10:00:37.387Z,20.00
2019-05-16T10:01:37.116Z,24.00
2019-05-16T10:02:36.709Z,24.00
2019-05-16T10:03:37.241Z,24.00
2019-05-16T10:04:36.820Z,24.00
2019-05-16T10:05:37.186Z,28.00
2019-05-16T10:06:37.155Z,24.00
2019-05-16T10:07:38.478Z,28.00
2019-05-16T10:08:37.281Z,24.00
2019-05-16T10:09:41.987Z,28.00
2019-05-16T10:10:36.956Z,28.00
2019-05-16T10:11:40.959Z,40.00
2019-05-16T10:12:36.967Z,36.00
2019-05-16T10:13:37.311Z,28.00
2019-05-16T10:14:37.639Z,28.00
2019-05-16T10:15:37.605Z,28.00
2019-05-16T10:16:36.672Z,24.00
2019-05-16T10:17:36.978Z,24.00
2019-05-16T10:18:36.920Z,20.00
2019-05-16T10:19:36.727Z,20.00
2019-05-16T10:20:36.580Z,20.00
2019-05-16T10:21:37.170Z,20.00
2019-05-16T10:22:34.495Z,24.00
2019-05-16T10:23:36.417Z,24.00
2019-05-16T10:24:34.375Z,20.00
2019-05-16T10:25:37.525Z,28.00
2019-05-16T10:26:34.256Z,36.00
2019-05-16T10:27:36.600Z,32.00
2019-05-16T10:28:34.139Z,28.00
2019-05-16T10:29:34.138Z,36.00
2019-05-16T10:30:34.020Z,32.00
2019-05-16T10:31:45.024Z,20.00
2019-05-16T10:32:33.903Z,16.00
2019-05-16T10:33:33.898Z,20.00
2019-05-16T10:34:33.782Z,20.00
2019-05-16T10:35:36.990Z,20.00
2019-05-16T10:36:33.665Z,28.00
2019-05-16T10:37:33.661Z,24.00
2019-05-16T10:38:33.577Z,20.00
2019-05-16T10:39:33.542Z,20.00
2019-05-16T10:40:33.428Z,32.00
2019-05-16T10:41:33.422Z,32.00
2019-05-16T10:42:33.423Z,32.00
2019-05-16T10:43:33.303Z,32.00
2019-05-16T10:44:33.304Z,28.00
2019-05-16T10:45:33.186Z,36.00
2019-05-16T10:46:33.184Z,28.00
2019-05-16T10:47:33.069Z,28.00
2019-05-16T10:48:33.066Z,24.00
2019-05-16T10:49:37.699Z,28.00
2019-05-16T10:50:32.990Z,28.00
2019-05-16T10:51:32.857Z,28.00
2019-05-16T10:52:32.827Z,24.00
2019-05-16T10:54:00.077Z,28.00
2019-05-16T10:54:32.743Z,28.00
2019-05-16T10:55:32.595Z,36.00
2019-05-16T10:56:32.591Z,28.00
2019-05-16T10:57:32.569Z,20.00
2019-05-16T10:58:37.057Z,28.00
2019-05-16T11:00:57.693Z,20.00
2019-05-16T11:01:32.352Z,32.00
2019-05-16T11:02:32.300Z,36.00
2019-05-16T11:03:32.235Z,24.00
2019-05-16T11:04:49.762Z,36.00
2019-05-16T11:05:36.062Z,32.00
2019-05-16T11:06:31.998Z,24.00
2019-05-16T11:07:32.027Z,40.00
2019-05-16T11:08:31.878Z,36.00
2019-05-16T11:09:31.877Z,32.00
2019-05-16T11:10:31.857Z,20.00
2019-05-16T11:11:31.757Z,20.00
2019-05-16T11:12:46.219Z,16.00
2019-05-16T11:13:31.638Z,20.00
2019-05-16T11:14:31.525Z,28.00
2019-05-16T11:15:31.519Z,32.00
2019-05-16T11:16:31.402Z,32.00
2019-05-16T11:17:31.400Z,36.00
2019-05-16T11:18:31.284Z,28.00
2019-05-16T11:19:31.280Z,40.00
2019-05-16T11:20:31.304Z,44.00
2019-05-16T11:21:31.165Z,36.00
2019-05-16T11:22:31.161Z,32.00
2019-05-16T11:23:31.538Z,40.00
2019-05-16T11:24:31.113Z,44.00
2019-05-16T11:25:32.672Z,48.00
2019-05-16T11:26:30.925Z,48.00
2019-05-16T11:27:30.810Z,40.00
2019-05-16T11:28:30.891Z,32.00
2019-05-16T11:29:30.688Z,44.00
2019-05-16T11:30:30.710Z,36.00
2019-05-16T11:31:30.570Z,40.00
2019-05-16T11:32:30.570Z,44.00
2019-05-16T11:33:30.450Z,48.00
2019-05-16T11:34:30.448Z,48.00
2019-05-16T11:35:30.331Z,40.00
2019-05-16T11:36:30.331Z,44.00
2019-05-16T11:37:30.214Z,36.00
2019-05-16T11:38:30.210Z,32.00
2019-05-16T11:39:30.210Z,32.00
2019-05-16T11:40:30.387Z,36.00
2019-05-16T11:41:30.091Z,40.00
2019-05-16T11:42:29.975Z,40.00
2019-05-16T11:43:29.971Z,44.00
2019-05-16T11:44:29.858Z,40.00
2019-05-16T11:45:29.853Z,32.00
2019-05-16T11:46:29.742Z,28.00
2019-05-16T11:47:29.735Z,28.00
2019-05-16T11:48:29.777Z,40.00
2019-05-16T11:49:29.617Z,40.00
2019-05-16T11:50:29.503Z,40.00
2019-05-16T11:51:29.497Z,40.00
2019-05-16T11:52:29.381Z,40.00
2019-05-16T11:53:29.381Z,40.00
2019-05-16T11:54:29.261Z,40.00
2019-05-16T11:55:34.062Z,36.00
2019-05-16T11:56:29.258Z,40.00
2019-05-16T11:57:29.139Z,40.00
2019-05-16T11:58:29.140Z,40.00
2019-05-16T11:59:29.022Z,40.00
2019-05-16T12:00:30.427Z,20.00
2019-05-16T12:01:28.903Z,20.00
2019-05-16T12:02:28.901Z,16.00
2019-05-16T12:03:28.793Z,16.00
2019-05-16T12:04:28.784Z,16.00
2019-05-16T12:05:28.666Z,20.00
2019-05-16T12:06:28.662Z,16.00
2019-05-16T12:07:33.332Z,16.00
2019-05-16T12:08:28.546Z,16.00
2019-05-16T12:09:33.771Z,16.00
2019-05-16T12:10:28.426Z,16.00
2019-05-16T12:11:28.309Z,20.00
2019-05-16T12:12:28.307Z,20.00
2019-05-16T12:13:32.658Z,20.00
2019-05-16T12:14:28.189Z,20.00
2019-05-16T12:15:28.188Z,20.00
2019-05-16T12:16:28.078Z,28.00
2019-05-16T12:17:28.150Z,28.00
2019-05-16T12:18:27.960Z,24.00
2019-05-16T12:19:33.850Z,24.00
2019-05-16T12:20:27.833Z,20.00
2019-05-16T12:21:27.831Z,24.00
2019-05-16T12:22:27.717Z,24.00
2019-05-16T12:23:27.781Z,40.00
2019-05-16T12:24:36.349Z,36.00
2019-05-16T12:25:27.596Z,32.00
2019-05-16T12:26:28.200Z,44.00
2019-05-16T12:27:32.172Z,24.00
2019-05-16T12:28:27.383Z,24.00
2019-05-16T12:29:28.106Z,20.00
2019-05-16T12:30:27.355Z,20.00
2019-05-16T12:31:27.237Z,24.00
2019-05-16T12:32:27.716Z,20.00
2019-05-16T12:33:27.614Z,24.00
2019-05-16T12:34:27.116Z,24.00
2019-05-16T12:35:27.711Z,24.00
2019-05-16T12:36:27.005Z,32.00
2019-05-16T12:37:27.591Z,36.00
2019-05-16T12:38:27.612Z,32.00
2019-05-16T12:39:26.953Z,28.00
2019-05-16T12:40:26.876Z,24.00
2019-05-16T12:41:28.675Z,20.00
2019-05-16T12:42:27.127Z,20.00
2019-05-16T12:43:43.726Z,20.00
2019-05-16T12:44:27.001Z,20.00
2019-05-16T12:45:27.481Z,16.00
2019-05-16T12:46:27.189Z,16.00
2019-05-16T12:47:26.404Z,16.00
2019-05-16T12:48:26.288Z,16.00
2019-05-16T12:49:26.285Z,20.00
2019-05-16T12:50:28.722Z,16.00
2019-05-16T12:51:26.525Z,16.00
2019-05-16T12:52:27.104Z,16.00
2019-05-16T12:53:31.602Z,16.00
2019-05-16T12:54:27.634Z,16.00
2019-05-16T12:55:27.115Z,16.00
2019-05-16T12:56:27.111Z,16.00
2019-05-16T12:57:30.147Z,12.00
2019-05-16T12:58:37.211Z,12.00
2019-05-16T12:59:26.773Z,12.00
2019-05-16T13:00:27.617Z,8.00
2019-05-16T13:01:30.656Z,12.00
2019-05-16T13:02:27.331Z,8.00
2019-05-16T13:03:27.763Z,8.00
2019-05-16T13:04:27.966Z,20.00
2019-05-16T13:05:26.936Z,20.00
2019-05-16T13:06:27.582Z,20.00
2019-05-16T13:07:26.904Z,20.00